»·PEaware :: ASA386 CYPR-PAJN

ASA386 :: CYPR-PAJN

FLIGHT INFORMATION

Flight Status: Arrived
Operator:
Alaska Airlines
More flights by this operator :: More flights under this callsign
Pilot: Luke W. (11553)
Aircraft: BOEING 737-800
(B738)
More flights by this aircraft type
Origin: CYPR Prince Rupert
Canada
Destination: PAJN Juneau Intl
United States
More flights between these airports :: More routes between these airports
Route: ANN SSR
File this flight plan on PilotEdge
Remarks:
Altitude:
(Current/Filed)
28,000ft
Speed:
(Current/Filed)
430kts
Departed: 29-Jun-17 11:40 PM
Arrived: 30-Jun-17 12:43 AM
Distance/Time
Traveled:
280nm/1:02
Distance/Time
To Go:
Arrived

Flight Plot

Page will automatically refresh every two minutes.

Flight plan parsing failed; only flown route is shown


Map Options




Map Legend


Flown Route
Filed Route
Departure Airport
Arrival Airport
Navaid (VOR, NDB)
Fix

Horizontal Profiles

Position Reports

Time Latitude Longitude Heading Altitude Ground
Speed
29-Jun-17 23:10 54.292061 -130.445885 17 134ft 0kts
29-Jun-17 23:11 54.292061 -130.445885 17 134ft 0kts
29-Jun-17 23:12 54.292061 -130.445885 17 134ft 0kts
29-Jun-17 23:13 54.292061 -130.445885 17 134ft 0kts
29-Jun-17 23:14 54.292061 -130.445885 17 134ft 0kts
29-Jun-17 23:15 54.292061 -130.445885 17 134ft 0kts
29-Jun-17 23:16 54.292061 -130.445885 17 134ft 0kts
29-Jun-17 23:17 54.292061 -130.445885 17 134ft 0kts
29-Jun-17 23:18 54.292061 -130.445885 17 134ft 0kts
29-Jun-17 23:19 54.292061 -130.445885 17 134ft 0kts
29-Jun-17 23:20 54.292061 -130.445885 17 134ft 0kts
29-Jun-17 23:21 54.292061 -130.445885 17 134ft 0kts
29-Jun-17 23:22 54.292061 -130.445885 17 134ft 0kts
29-Jun-17 23:23 54.292061 -130.445885 17 134ft 0kts
29-Jun-17 23:24 54.292061 -130.445885 17 134ft 0kts
29-Jun-17 23:25 54.292061 -130.445885 17 134ft 0kts
29-Jun-17 23:26 54.292061 -130.445885 17 134ft 0kts
29-Jun-17 23:27 54.292061 -130.445885 17 134ft 0kts
29-Jun-17 23:28 54.292061 -130.445885 17 134ft 0kts
29-Jun-17 23:29 54.292061 -130.445885 17 134ft 0kts
29-Jun-17 23:30 54.292061 -130.445885 17 134ft 0kts
29-Jun-17 23:31 54.291908 -130.446406 188 131ft 0kts
29-Jun-17 23:32 54.291344 -130.446350 151 130ft 0kts
29-Jun-17 23:33 54.291344 -130.446350 151 130ft 0kts
29-Jun-17 23:34 54.291344 -130.446350 151 130ft 0kts
29-Jun-17 23:35 54.291218 -130.446229 151 131ft 2kts
29-Jun-17 23:36 54.290759 -130.445993 204 131ft 0kts
29-Jun-17 23:37 54.290759 -130.445993 204 131ft 0kts
29-Jun-17 23:38 54.290402 -130.446857 241 126ft 0kts
29-Jun-17 23:39 54.290402 -130.446857 241 126ft 0kts
29-Jun-17 23:40 54.288983 -130.447564 152 120ft 17kts
29-Jun-17 23:41 54.283824 -130.442828 151 134ft 24kts
29-Jun-17 23:42 54.279107 -130.438489 351 143ft 6kts
29-Jun-17 23:43 54.291658 -130.450204 329 470ft 164kts
29-Jun-17 23:44 54.326812 -130.502855 319 3965ft 169kts
29-Jun-17 23:45 54.356652 -130.547395 318 6626ft 163kts
29-Jun-17 23:46 54.400602 -130.611579 317 8204ft 271kts
29-Jun-17 23:47 54.450350 -130.683161 314 11158ft 304kts
29-Jun-17 23:48 54.507472 -130.765554 313 14453ft 322kts
29-Jun-17 23:49 54.568300 -130.853609 313 17544ft 338kts
29-Jun-17 23:50 54.629128 -130.941947 313 20256ft 353kts
29-Jun-17 23:51 54.685002 -131.023371 313 22448ft 366kts
29-Jun-17 23:52 54.755124 -131.125946 312 24884ft 380kts
29-Jun-17 23:53 54.827085 -131.231655 312 27419ft 382kts
29-Jun-17 23:54 54.898874 -131.337917 312 28220ft 400kts
29-Jun-17 23:55 54.971477 -131.445728 312 28219ft 422kts
29-Jun-17 23:56 55.051581 -131.564943 314 28211ft 443kts
29-Jun-17 23:57 55.129313 -131.652002 320 28211ft 462kts
29-Jun-17 23:58 55.212373 -131.741784 321 28218ft 470kts
29-Jun-17 23:59 55.296137 -131.832167 320 28217ft 468kts
30-Jun-17 00:00 55.381701 -131.925262 321 28218ft 469kts
30-Jun-17 00:01 55.471032 -132.023020 320 28219ft 468kts
30-Jun-17 00:02 55.561501 -132.122213 320 28220ft 468kts
30-Jun-17 00:03 55.645558 -132.215262 321 28218ft 468kts
30-Jun-17 00:04 55.729265 -132.308146 320 28212ft 468kts
30-Jun-17 00:05 55.815941 -132.404802 321 28190ft 469kts
30-Jun-17 00:06 55.903133 -132.502888 320 28186ft 469kts
30-Jun-17 00:07 55.993096 -132.604176 320 28192ft 468kts
30-Jun-17 00:08 56.078913 -132.701647 320 28200ft 468kts
30-Jun-17 00:09 56.146694 -132.778763 320 28196ft 467kts
30-Jun-17 00:10 56.233876 -132.878879 320 28197ft 468kts
30-Jun-17 00:11 56.323895 -132.982526 319 28206ft 467kts
30-Jun-17 00:12 56.412069 -133.084530 320 28208ft 470kts
30-Jun-17 00:13 56.499322 -133.186436 320 28210ft 473kts
30-Jun-17 00:14 56.591364 -133.294162 320 28209ft 473kts
30-Jun-17 00:15 56.676525 -133.394337 320 28209ft 474kts
30-Jun-17 00:16 56.760269 -133.493798 320 28210ft 474kts
30-Jun-17 00:17 56.844779 -133.594181 320 28210ft 474kts
30-Jun-17 00:18 56.925550 -133.691176 319 28214ft 473kts
30-Jun-17 00:19 57.023931 -133.809964 321 28216ft 479kts
30-Jun-17 00:20 57.123775 -133.930930 323 27353ft 461kts
30-Jun-17 00:21 57.201710 -134.025622 324 25445ft 444kts
30-Jun-17 00:22 57.298794 -134.144703 324 23027ft 429kts
30-Jun-17 00:23 57.387416 -134.254175 323 20732ft 414kts
30-Jun-17 00:24 57.469917 -134.356424 322 18524ft 400kts
30-Jun-17 00:25 57.548095 -134.453883 323 16454ft 385kts
30-Jun-17 00:26 57.623792 -134.549175 323 14853ft 404kts
30-Jun-17 00:27 57.694975 -134.638534 323 13291ft 393kts
30-Jun-17 00:28 57.760216 -134.721444 321 11832ft 384kts
30-Jun-17 00:29 57.822235 -134.800383 323 10428ft 381kts
30-Jun-17 00:30 57.879188 -134.872959 323 9123ft 375kts
30-Jun-17 00:31 57.930405 -134.938753 324 7929ft 370kts
30-Jun-17 00:32 57.978036 -135.000151 325 6882ft 351kts
30-Jun-17 00:33 58.029726 -135.066987 327 5658ft 325kts
30-Jun-17 00:34 58.088352 -135.142367 325 4433ft 309kts
30-Jun-17 00:35 58.139700 -135.208233 331 3443ft 306kts
30-Jun-17 00:36 58.201469 -135.168666 54 3397ft 311kts
30-Jun-17 00:37 58.245942 -135.053500 20 3380ft 262kts
30-Jun-17 00:38 58.304425 -135.028225 12 3382ft 183kts
30-Jun-17 00:39 58.350026 -135.003024 48 3302ft 180kts
30-Jun-17 00:40 58.356701 -134.918919 88 2839ft 163kts
30-Jun-17 00:41 58.357227 -134.841191 90 2698ft 152kts
30-Jun-17 00:42 58.357509 -134.766524 89 2224ft 139kts
30-Jun-17 00:43 58.359119 -134.698845 80 1718ft 128kts
30-Jun-17 00:44 58.361778 -134.634049 94 777ft 125kts
30-Jun-17 00:45 58.355124 -134.577404 103 17ft 53kts
30-Jun-17 00:46 58.355925 -134.575138 284 18ft 8kts
30-Jun-17 00:47 58.356735 -134.580243 275 17ft 7kts
30-Jun-17 00:48 58.358106 -134.585845 305 15ft 13kts
30-Jun-17 00:49 58.358767 -134.584665 102 18ft 0kts
30-Jun-17 00:50 58.358767 -134.584665 102 18ft 0kts
30-Jun-17 00:51 58.358767 -134.584665 102 18ft 0kts
30-Jun-17 00:52 58.362190 -134.645267 91 962ft 126kts
30-Jun-17 00:53 58.356178 -134.585180 103 15ft 107kts
30-Jun-17 00:54 58.358976 -134.700380 80 1736ft 128kts
30-Jun-17 00:55 58.361976 -134.638331 93 857ft 125kts
30-Jun-17 00:56 58.355425 -134.579540 104 18ft 72kts
30-Jun-17 00:57 58.355942 -134.575260 284 17ft 8kts
30-Jun-17 00:58 58.356747 -134.580472 275 17ft 9kts
30-Jun-17 00:59 58.358247 -134.586072 330 15ft 14kts
30-Jun-17 01:00 58.358767 -134.584665 102 18ft 0kts

Navigation Log

Ident Type
Flight plan parsing failed, navigation log unavailable